Observation data for Denver City on 05/16/2018      Previous  Date  Next       Current Mesonet Observations  Soil Data  Daily Summary Page  Observations in Plain Language
KDVS 160500Z 12005KT 21/09 A3001 RMK A01 T02130094  RH  048%=      5-min Rain = 0
KDVS 160505Z 12006KT 21/10 A3001 RMK A01 T02100095  RH  049%=      5-min Rain = 0
KDVS 160510Z 11007KT 21/10 A30 RMK A01 T02090097  RH  050%=      5-min Rain = 0
KDVS 160515Z 12006KT 21/10 A3001 RMK A01 T02080098  RH  051%=      5-min Rain = 0
KDVS 160520Z 11008KT 21/10 A3001 RMK A01 T02070103  RH  053%=      5-min Rain = 0
KDVS 160525Z 10008KT 21/10 A3001 RMK A01 T02070103  RH  053%=      5-min Rain = 0
KDVS 160530Z 09008KT 21/10 A3001 RMK A01 T02050104  RH  054%=      5-min Rain = 0
KDVS 160535Z 09009KT 20/11 A3002 RMK A01 T02030107  RH  056%=      5-min Rain = 0
KDVS 160540Z 09010KT 21/11 A3002 RMK A01 T02050110  RH  056%=      5-min Rain = 0
KDVS 160545Z 09010KT 21/11 A3002 RMK A01 T02050111  RH  057%=      5-min Rain = 0
KDVS 160550Z 09010KT 20/11 A3002 RMK A01 T02040111  RH  057%=      5-min Rain = 0
KDVS 160555Z 09011KT 20/11 A3002 RMK A01 T02040111  RH  057%=      5-min Rain = 0
KDVS 160600Z 11011KT 21/11 A3002 RMK A01 T02050111  RH  057%=      5-min Rain = 0
KDVS 160605Z 11011KT 21/11 A3002 RMK A01 T02050112  RH  057%=      5-min Rain = 0
KDVS 160610Z 11011KT 20/11 A3002 RMK A01 T02040112  RH  057%=      5-min Rain = 0
KDVS 160615Z 10011KT 20/11 A3002 RMK A01 T02040113  RH  058%=      5-min Rain = 0
KDVS 160620Z 09010KT 20/11 A3002 RMK A01 T02030112  RH  058%=      5-min Rain = 0
KDVS 160625Z 09009KT 20/11 A3002 RMK A01 T02000111  RH  059%=      5-min Rain = 0
KDVS 160630Z 08009KT 20/11 A3002 RMK A01 T01970109  RH  059%=      5-min Rain = 0
KDVS 160635Z 10011KT 20/10 A3002 RMK A01 T01950104  RH  057%=      5-min Rain = 0
KDVS 160640Z 10012G17KT 20/11 A3002 RMK A01 T01980106  RH  057%=      5-min Rain = 0
KDVS 160645Z 10010KT 20/11 A3002 RMK A01 T01970105  RH  057%=      5-min Rain = 0
KDVS 160650Z 08009KT 19/10 A3002 RMK A01 T01930102  RH  058%=      5-min Rain = 0
KDVS 160655Z 09008KT 19/10 A3003 RMK A01 T01890100  RH  058%=      5-min Rain = 0
KDVS 160700Z 09008KT 19/10 A3002 RMK A01 T01860100  RH  059%=      5-min Rain = 0
KDVS 160705Z 10008KT 19/10 A3002 RMK A01 T01850102  RH  060%=      5-min Rain = 0
KDVS 160710Z 10009KT 19/11 A3002 RMK A01 T01870106  RH  061%=      5-min Rain = 0
KDVS 160715Z 10011KT 19/11 A3002 RMK A01 T01900109  RH  061%=      5-min Rain = 0
KDVS 160720Z 11011KT 19/11 A3001 RMK A01 T01930110  RH  061%=      5-min Rain = 0
KDVS 160725Z 11011KT 19/11 A3001 RMK A01 T01930111  RH  061%=      5-min Rain = 0
KDVS 160730Z 11012KT 19/11 A3001 RMK A01 T01930111  RH  061%=      5-min Rain = 0
KDVS 160735Z 12012KT 19/11 A30 RMK A01 T01920111  RH  061%=      5-min Rain = 0
KDVS 160740Z 12012KT 19/11 A30 RMK A01 T01920110  RH  061%=      5-min Rain = 0
KDVS 160745Z 12012KT 19/11 A30 RMK A01 T01910110  RH  062%=      5-min Rain = 0
KDVS 160750Z 11011KT 19/11 A30 RMK A01 T01890110  RH  062%=      5-min Rain = 0
KDVS 160755Z 11010KT 19/11 A30 RMK A01 T01880110  RH  063%=      5-min Rain = 0
KDVS 160800Z 11010KT 19/11 A30 RMK A01 T01860110  RH  064%=      5-min Rain = 0
KDVS 160805Z 12010KT 18/11 A30 RMK A01 T01840110  RH  064%=      5-min Rain = 0
KDVS 160810Z 12011KT 18/11 A2999 RMK A01 T01830110  RH  065%=      5-min Rain = 0
KDVS 160815Z 12011KT 18/11 A2999 RMK A01 T01820110  RH  065%=      5-min Rain = 0
KDVS 160820Z 12011KT 18/11 A2999 RMK A01 T01810110  RH  065%=      5-min Rain = 0
KDVS 160825Z 12010KT 18/11 A2999 RMK A01 T01790109  RH  066%=      5-min Rain = 0
KDVS 160830Z 12010KT 18/11 A2999 RMK A01 T01790109  RH  066%=      5-min Rain = 0
KDVS 160835Z 12008KT 18/11 A2999 RMK A01 T01780108  RH  066%=      5-min Rain = 0
KDVS 160840Z 13010KT 18/11 A2999 RMK A01 T01770107  RH  066%=      5-min Rain = 0
KDVS 160845Z 13010KT 18/11 A2999 RMK A01 T01760107  RH  066%=      5-min Rain = 0
KDVS 160850Z 13011KT 18/11 A2999 RMK A01 T01750106  RH  066%=      5-min Rain = 0
KDVS 160855Z 13012KT 18/11 A2998 RMK A01 T01750106  RH  066%=      5-min Rain = 0
KDVS 160900Z 13011KT 17/11 A2998 RMK A01 T01740107  RH  067%=      5-min Rain = 0
KDVS 160905Z 14010KT 17/11 A2998 RMK A01 T01730107  RH  067%=      5-min Rain = 0
KDVS 160910Z 14010KT 17/11 A2998 RMK A01 T01730108  RH  068%=      5-min Rain = 0
KDVS 160915Z 14010KT 17/11 A2998 RMK A01 T01730108  RH  068%=      5-min Rain = 0
KDVS 160920Z 14011KT 17/11 A2998 RMK A01 T01720108  RH  068%=      5-min Rain = 0
KDVS 160925Z 14010KT 17/11 A2998 RMK A01 T01710108  RH  069%=      5-min Rain = 0
KDVS 160930Z 14011KT 17/11 A2998 RMK A01 T01690108  RH  069%=      5-min Rain = 0
KDVS 160935Z 14012KT 17/11 A2998 RMK A01 T01680108  RH  070%=      5-min Rain = 0
KDVS 160940Z 14011KT 17/11 A2998 RMK A01 T01680109  RH  070%=      5-min Rain = 0
KDVS 160945Z 15010KT 17/11 A2998 RMK A01 T01680109  RH  071%=      5-min Rain = 0
KDVS 160950Z 15011KT 17/11 A2998 RMK A01 T01670110  RH  071%=      5-min Rain = 0
KDVS 160955Z 15010KT 17/11 A2998 RMK A01 T01670110  RH  072%=      5-min Rain = 0
KDVS 161000Z 15011KT 17/11 A2998 RMK A01 T01670111  RH  072%=      5-min Rain = 0
KDVS 161005Z 15012KT 17/11 A2998 RMK A01 T01680111  RH  072%=      5-min Rain = 0
KDVS 161010Z 15011KT 17/11 A2998 RMK A01 T01670111  RH  072%=      5-min Rain = 0
KDVS 161015Z 15011KT 17/11 A2998 RMK A01 T01670112  RH  072%=      5-min Rain = 0
KDVS 161020Z 15010KT 17/11 A2998 RMK A01 T01670112  RH  072%=      5-min Rain = 0
KDVS 161025Z 15011KT 17/11 A2998 RMK A01 T01670111  RH  072%=      5-min Rain = 0
KDVS 161030Z 15010KT 17/11 A2998 RMK A01 T01660111  RH  072%=      5-min Rain = 0
KDVS 161035Z 15011KT 17/11 A2998 RMK A01 T01660111  RH  072%=      5-min Rain = 0
KDVS 161040Z 15011KT 17/11 A2998 RMK A01 T01660110  RH  072%=      5-min Rain = 0
KDVS 161045Z 15010KT 17/11 A2998 RMK A01 T01650110  RH  072%=      5-min Rain = 0
KDVS 161050Z 15011KT 16/11 A2998 RMK A01 T01640109  RH  072%=      5-min Rain = 0
KDVS 161055Z 15009KT 16/11 A2998 RMK A01 T01630109  RH  073%=      5-min Rain = 0
KDVS 161100Z 15009KT 16/11 A2999 RMK A01 T01610109  RH  073%=      5-min Rain = 0
KDVS 161105Z 15009KT 16/11 A2999 RMK A01 T01600109  RH  074%=      5-min Rain = 0
KDVS 161110Z 15009KT 16/11 A2999 RMK A01 T01590108  RH  074%=      5-min Rain = 0
KDVS 161115Z 15009KT 16/11 A2999 RMK A01 T01590108  RH  074%=      5-min Rain = 0
KDVS 161120Z 15009KT 16/11 A2999 RMK A01 T01580108  RH  075%=      5-min Rain = 0
KDVS 161125Z 16009KT 16/11 A2999 RMK A01 T01570108  RH  075%=      5-min Rain = 0
KDVS 161130Z 16009KT 16/11 A30 RMK A01 T01570108  RH  075%=      5-min Rain = 0
KDVS 161135Z 16009KT 16/11 A30 RMK A01 T01560107  RH  075%=      5-min Rain = 0
KDVS 161140Z 15007KT 16/11 A30 RMK A01 T01550107  RH  076%=      5-min Rain = 0
KDVS 161145Z 09006KT 15/11 A3002 RMK A01 T01540107  RH  076%=      5-min Rain = 0
KDVS 161150Z 03009KT 15/11 A3003 RMK A01 T01510106  RH  077%=      5-min Rain = 0
KDVS 161155Z 06007KT 15/11 A3003 RMK A01 T01530107  RH  076%=      5-min Rain = 0
KDVS 161200Z 14007KT 16/11 A3002 RMK A01 T01550106  RH  075%=      5-min Rain = 0
KDVS 161205Z 15009KT 15/11 A3001 RMK A01 T01540105  RH  075%=      5-min Rain = 0
KDVS 161210Z 15007KT 15/11 A3002 RMK A01 T01540105  RH  076%=      5-min Rain = 0
KDVS 161215Z 13006KT 15/11 A3002 RMK A01 T01530105  RH  076%=      5-min Rain = 0
KDVS 161220Z 14006KT 15/11 A3002 RMK A01 T01530105  RH  076%=      5-min Rain = 0
KDVS 161225Z 16006KT 15/11 A3002 RMK A01 T01540105  RH  075%=      5-min Rain = 0
KDVS 161230Z 13004KT 16/11 A3003 RMK A01 T01570106  RH  074%=      5-min Rain = 0
KDVS 161235Z 07004KT 16/11 A3003 RMK A01 T01600107  RH  073%=      5-min Rain = 0
KDVS 161240Z 08003KT 16/11 A3004 RMK A01 T01620107  RH  072%=      5-min Rain = 0
KDVS 161245Z 12004KT 17/11 A3004 RMK A01 T01650107  RH  071%=      5-min Rain = 0
KDVS 161250Z 12003KT 17/11 A3004 RMK A01 T01680108  RH  070%=      5-min Rain = 0
KDVS 161255Z 12003KT 17/11 A3004 RMK A01 T01710108  RH  069%=      5-min Rain = 0
KDVS 161300Z 14004KT 17/11 A3004 RMK A01 T01730108  RH  068%=      5-min Rain = 0
KDVS 161305Z 13006KT 17/11 A3005 RMK A01 T01730108  RH  068%=      5-min Rain = 0
KDVS 161310Z 13005KT 17/11 A3005 RMK A01 T01740108  RH  068%=      5-min Rain = 0
KDVS 161315Z 12005KT 18/11 A3005 RMK A01 T01770109  RH  067%=      5-min Rain = 0
KDVS 161320Z 12005KT 18/11 A3006 RMK A01 T01780109  RH  066%=      5-min Rain = 0
KDVS 161325Z 13006KT 18/11 A3006 RMK A01 T01800110  RH  066%=      5-min Rain = 0
KDVS 161330Z 16006KT 18/11 A3006 RMK A01 T01840110  RH  064%=      5-min Rain = 0
KDVS 161335Z 16006KT 19/11 A3006 RMK A01 T01870111  RH  063%=      5-min Rain = 0
KDVS 161340Z 16007KT 19/11 A3006 RMK A01 T01880111  RH  063%=      5-min Rain = 0
KDVS 161345Z 15006KT 19/11 A3006 RMK A01 T01860112  RH  064%=      5-min Rain = 0
KDVS 161350Z 16006KT 19/11 A3007 RMK A01 T01880114  RH  064%=      5-min Rain = 0
KDVS 161355Z 16006KT 19/11 A3007 RMK A01 T01890114  RH  064%=      5-min Rain = 0
KDVS 161400Z 18007KT 19/12 A3007 RMK A01 T01900115  RH  064%=      5-min Rain = 0
KDVS 161405Z 17008KT 19/12 A3007 RMK A01 T01870116  RH  066%=      5-min Rain = 0
KDVS 161410Z 15006KT 19/12 A3008 RMK A01 T01880117  RH  065%=      5-min Rain = 0
KDVS 161415Z 15006KT 19/12 A3008 RMK A01 T01890117  RH  065%=      5-min Rain = 0
KDVS 161420Z 15007KT 19/12 A3009 RMK A01 T01900119  RH  066%=      5-min Rain = 0
KDVS 161425Z 11005KT 19/12 A3009 RMK A01 T01910118  RH  065%=      5-min Rain = 0
KDVS 161430Z 12006KT 19/12 A3009 RMK A01 T01930119  RH  065%=      5-min Rain = 0
KDVS 161435Z 11009KT 19/12 A301 RMK A01 T01930120  RH  065%=      5-min Rain = 0
KDVS 161440Z 11009KT 19/12 A301 RMK A01 T01920121  RH  066%=      5-min Rain = 0
KDVS 161445Z 10008KT 19/12 A301 RMK A01 T01940121  RH  065%=      5-min Rain = 0
KDVS 161450Z 11010KT 20/12 A301 RMK A01 T01960122  RH  065%=      5-min Rain = 0
KDVS 161455Z 10010G15KT 20/12 A3011 RMK A01 T01970122  RH  064%=      5-min Rain = 0
KDVS 161500Z 09011KT 20/12 A3011 RMK A01 T01970120  RH  063%=      5-min Rain = 0
KDVS 161505Z 08011KT 20/12 A3011 RMK A01 T01990120  RH  062%=      5-min Rain = 0
KDVS 161510Z 08011KT 20/12 A3011 RMK A01 T01990121  RH  063%=      5-min Rain = 0
KDVS 161515Z 10012KT 20/12 A3011 RMK A01 T02000122  RH  063%=      5-min Rain = 0
KDVS 161520Z 09012KT 20/12 A3011 RMK A01 T02020122  RH  063%=      5-min Rain = 0
KDVS 161525Z 10012G17KT 20/12 A3011 RMK A01 T02040123  RH  062%=      5-min Rain = 0
KDVS 161530Z 11013KT 21/12 A3011 RMK A01 T02110124  RH  060%=      5-min Rain = 0
KDVS 161535Z 10012G17KT 21/13 A301 RMK A01 T02130126  RH  060%=      5-min Rain = 0
KDVS 161540Z 11012KT 21/13 A301 RMK A01 T02140128  RH  060%=      5-min Rain = 0
KDVS 161545Z 12014G19KT 22/13 A301 RMK A01 T02170129  RH  060%=      5-min Rain = 0
KDVS 161550Z 13013G18KT 23/13 A301 RMK A01 T02250130  RH  057%=      5-min Rain = 0
KDVS 161555Z 13013G19KT 23/13 A301 RMK A01 T02270130  RH  056%=      5-min Rain = 0
KDVS 161600Z 14013G18KT 24/13 A301 RMK A01 T02360130  RH  053%=      5-min Rain = 0
KDVS 161605Z 13012KT 24/13 A3009 RMK A01 T02400129  RH  052%=      5-min Rain = 0
KDVS 161610Z 12013G18KT 24/13 A3009 RMK A01 T02370130  RH  053%=      5-min Rain = 0
KDVS 161615Z 12013G18KT 24/13 A3009 RMK A01 T02390129  RH  052%=      5-min Rain = 0
KDVS 161620Z 12012G17KT 24/13 A3008 RMK A01 T02420130  RH  051%=      5-min Rain = 0
KDVS 161625Z 13013G19KT 24/13 A3008 RMK A01 T02420132  RH  052%=      5-min Rain = 0
KDVS 161630Z 12013KT 25/13 A3009 RMK A01 T02460130  RH  051%=      5-min Rain = 0
KDVS 161635Z 14012KT 25/13 A3008 RMK A01 T02480129  RH  049%=      5-min Rain = 0
KDVS 161640Z 14012G17KT 25/13 A3008 RMK A01 T02490125  RH  048%=      5-min Rain = 0
KDVS 161645Z 13012KT 25/12 A3008 RMK A01 T02520124  RH  047%=      5-min Rain = 0
KDVS 161650Z 12012G17KT 25/13 A3008 RMK A01 T02530125  RH  047%=      5-min Rain = 0
KDVS 161655Z 15014G20KT 25/12 A3008 RMK A01 T02530124  RH  046%=      5-min Rain = 0
KDVS 161700Z 14011G17KT 26/12 A3008 RMK A01 T02580120  RH  044%=      5-min Rain = 0
KDVS 161705Z 14012G17KT 26/12 A3008 RMK A01 T02630120  RH  042%=      5-min Rain = 0
KDVS 161710Z 14012G17KT 26/12 A3007 RMK A01 T02630118  RH  042%=      5-min Rain = 0
KDVS 161715Z 16008G15KT 26/12 A3007 RMK A01 T02640118  RH  042%=      5-min Rain = 0
KDVS 161720Z 16012G19KT 26/12 A3007 RMK A01 T02600119  RH  043%=      5-min Rain = 0
KDVS 161725Z 14010G15KT 26/11 A3007 RMK A01 T02630113  RH  041%=      5-min Rain = 0
KDVS 161730Z 15010G15KT 27/11 A3007 RMK A01 T02660112  RH  040%=      5-min Rain = 0
KDVS 161735Z 15006G15KT 27/11 A3007 RMK A01 T02660113  RH  040%=      5-min Rain = 0
KDVS 161740Z 15012G18KT 27/11 A3006 RMK A01 T02710108  RH  038%=      5-min Rain = 0
KDVS 161745Z 14010G17KT 27/11 A3006 RMK A01 T02720108  RH  037%=      5-min Rain = 0
KDVS 161750Z 16011G22KT 27/11 A3006 RMK A01 T02740108  RH  037%=      5-min Rain = 0
KDVS 161755Z 15010KT 28/11 A3006 RMK A01 T02780108  RH  036%=      5-min Rain = 0
KDVS 161800Z 18011G16KT 28/10 A3005 RMK A01 T02770104  RH  035%=      5-min Rain = 0
KDVS 161805Z 16010G15KT 28/10 A3005 RMK A01 T02780101  RH  034%=      5-min Rain = 0
KDVS 161810Z 14011G16KT 28/11 A3005 RMK A01 T02810107  RH  035%=      5-min Rain = 0
KDVS 161815Z 14010G17KT 28/11 A3005 RMK A01 T02840106  RH  034%=      5-min Rain = 0
KDVS 161820Z 18010G17KT 28/11 A3004 RMK A01 T02830108  RH  035%=      5-min Rain = 0
KDVS 161825Z 15011G16KT 28/10 A3004 RMK A01 T02840102  RH  033%=      5-min Rain = 0
KDVS 161830Z 15011G17KT 29/10 A3004 RMK A01 T02860100  RH  032%=      5-min Rain = 0
KDVS 161835Z 16008G16KT 29/11 A3004 RMK A01 T02850106  RH  034%=      5-min Rain = 0
KDVS 161840Z 16011G17KT 29/10 A3003 RMK A01 T02900104  RH  032%=      5-min Rain = 0
KDVS 161845Z 14011G18KT 30/10 A3003 RMK A01 T02960098  RH  030%=      5-min Rain = 0
KDVS 161850Z 19010G15KT 29/10 A3003 RMK A01 T02930103  RH  032%=      5-min Rain = 0
KDVS 161855Z 17010G15KT 29/10 A3003 RMK A01 T02910104  RH  032%=      5-min Rain = 0
KDVS 161900Z 14010G20KT 30/10 A3003 RMK A01 T02950102  RH  031%=      5-min Rain = 0
KDVS 161905Z 14012G19KT 30/10 A3003 RMK A01 T02970099  RH  030%=      5-min Rain = 0
KDVS 161910Z 15008KT 30/10 A3003 RMK A01 T02990098  RH  030%=      5-min Rain = 0
KDVS 161915Z 14009G14KT 30/10 A3003 RMK A01 T03000102  RH  030%=      5-min Rain = 0
KDVS 161920Z 16008G13KT 30/10 A3002 RMK A01 T02990102  RH  030%=      5-min Rain = 0
KDVS 161925Z 15011G20KT 31/10 A3002 RMK A01 T03060101  RH  029%=      5-min Rain = 0
KDVS 161930Z 12009G14KT 31/10 A3002 RMK A01 T03070100  RH  029%=      5-min Rain = 0
KDVS 161935Z 15010G17KT 31/10 A3002 RMK A01 T03070098  RH  028%=      5-min Rain = 0
KDVS 161940Z 16009G15KT 31/10 A3002 RMK A01 T03050098  RH  029%=      5-min Rain = 0
KDVS 161945Z 16009G15KT 31/10 A3001 RMK A01 T03050098  RH  029%=      5-min Rain = 0
KDVS 161950Z 17004KT 31/10 A3001 RMK A01 T03080098  RH  028%=      5-min Rain = 0
KDVS 161955Z 21010G16KT 31/09 A3001 RMK A01 T03120090  RH  026%=      5-min Rain = 0
KDVS 162000Z 21009G14KT 31/08 A3001 RMK A01 T03110083  RH  025%=      5-min Rain = 0
KDVS 162005Z 15007G12KT 31/08 A3001 RMK A01 T03130080  RH  024%=      5-min Rain = 0
KDVS 162010Z 19008G15KT 32/08 A3001 RMK A01 T03180077  RH  023%=      5-min Rain = 0
KDVS 162015Z 21009G14KT 32/07 A30 RMK A01 T03190073  RH  022%=      5-min Rain = 0
KDVS 162020Z 23007KT 31/07 A30 RMK A01 T03110066  RH  022%=      5-min Rain = 0
KDVS 162025Z 20007G13KT 31/07 A30 RMK A01 T03130071  RH  023%=      5-min Rain = 0
KDVS 162030Z 17006G12KT 32/07 A30 RMK A01 T03150072  RH  023%=      5-min Rain = 0
KDVS 162035Z 16003G8KT 32/08 A2999 RMK A01 T03180075  RH  023%=      5-min Rain = 0
KDVS 162040Z 14003G8KT 32/08 A2999 RMK A01 T03210079  RH  023%=      5-min Rain = 0
KDVS 162045Z 19006G11KT 32/08 A2999 RMK A01 T03240077  RH  022%=      5-min Rain = 0
KDVS 162050Z 22008KT 32/07 A2999 RMK A01 T03210069  RH  021%=      5-min Rain = 0
KDVS 162055Z 23005KT 32/06 A2999 RMK A01 T03210063  RH  020%=      5-min Rain = 0
KDVS 162100Z 21005KT 32/07 A2998 RMK A01 T03210066  RH  021%=      5-min Rain = 0
KDVS 162105Z 19005G10KT 33/06 A2998 RMK A01 T03250062  RH  020%=      5-min Rain = 0
KDVS 162110Z 11003KT 32/07 A2998 RMK A01 T03240069  RH  021%=      5-min Rain = 0
KDVS 162115Z 17004KT 32/07 A2997 RMK A01 T03230072  RH  021%=      5-min Rain = 0
KDVS 162120Z 19007G13KT 33/06 A2997 RMK A01 T03280056  RH  019%=      5-min Rain = 0
KDVS 162125Z 19006G12KT 33/05 A2997 RMK A01 T03300045  RH  017%=      5-min Rain = 0
KDVS 162130Z 23009KT 33/01 A2997 RMK A01 T03330009  RH  013%=      5-min Rain = 0
KDVS 162135Z 23008KT 33/M00 A2997 RMK A01 T03331001  RH  012%=      5-min Rain = 0
KDVS 162140Z 27005G11KT 33/00 A2996 RMK A01 T03330004  RH  012%=      5-min Rain = 0
KDVS 162145Z 27007KT 33/M01 A2996 RMK A01 T03331007  RH  011%=      5-min Rain = 0
KDVS 162150Z 29004KT 33/M00 A2996 RMK A01 T03321004  RH  012%=      5-min Rain = 0
KDVS 162155Z 29006KT 34/01 A2995 RMK A01 T03380006  RH  012%=      5-min Rain = 0
KDVS 162200Z 24006KT 34/01 A2995 RMK A01 T03350007  RH  013%=      5-min Rain = 0
KDVS 162205Z 26007KT 34/01 A2995 RMK A01 T03350009  RH  013%=      5-min Rain = 0
KDVS 162210Z 29008KT 33/01 A2995 RMK A01 T03340006  RH  013%=      5-min Rain = 0
KDVS 162215Z 29006KT 33/01 A2995 RMK A01 T03300009  RH  013%=      5-min Rain = 0
KDVS 162220Z 32003G8KT 33/00 A2995 RMK A01 T03300004  RH  013%=      5-min Rain = 0
KDVS 162225Z 35003KT 33/01 A2994 RMK A01 T03320006  RH  013%=      5-min Rain = 0
KDVS 162230Z 27004G9KT 34/01 A2994 RMK A01 T03350005  RH  012%=      5-min Rain = 0
KDVS 162235Z 25012KT 34/M01 A2994 RMK A01 T03381005  RH  011%=      5-min Rain = 0
KDVS 162240Z 25007G14KT 33/M01 A2994 RMK A01 T03341006  RH  012%=      5-min Rain = 0
KDVS 162245Z 22005G12KT 34/M01 A2994 RMK A01 T03391010  RH  011%=      5-min Rain = 0
KDVS 162250Z 21006G13KT 34/M01 A2994 RMK A01 T03371011  RH  011%=      5-min Rain = 0
KDVS 162255Z 21004KT 34/M01 A2994 RMK A01 T03351010  RH  011%=      5-min Rain = 0
KDVS 162300Z 18004KT 34/M01 A2994 RMK A01 T03381009  RH  011%=      5-min Rain = 0
KDVS 162305Z 14003KT 34/M01 A2994 RMK A01 T03371009  RH  011%=      5-min Rain = 0
KDVS 162310Z 33003KT 34/M01 A2993 RMK A01 T03351007  RH  011%=      5-min Rain = 0
KDVS 162315Z 28004KT 34/M01 A2993 RMK A01 T03351007  RH  011%=      5-min Rain = 0
KDVS 162320Z 27008KT 33/M00 A2993 RMK A01 T03331004  RH  012%=      5-min Rain = 0
KDVS 162325Z 29008KT 33/M00 A2993 RMK A01 T03251003  RH  012%=      5-min Rain = 0
KDVS 162330Z 25005G11KT 32/M00 A2993 RMK A01 T03231003  RH  012%=      5-min Rain = 0
KDVS 162335Z 24009KT 33/M00 A2993 RMK A01 T03281003  RH  012%=      5-min Rain = 0
KDVS 162340Z 25006G11KT 33/M00 A2993 RMK A01 T03291004  RH  012%=      5-min Rain = 0
KDVS 162345Z 24003KT 33/M00 A2993 RMK A01 T03301004  RH  012%=      5-min Rain = 0
KDVS 162350Z 22003G8KT 33/M00 A2992 RMK A01 T03311004  RH  012%=      5-min Rain = 0
KDVS 162355Z 20009KT 33/M00 A2992 RMK A01 T03331002  RH  012%=      5-min Rain = 0
KDVS 170000Z 20008G13KT 33/M00 A2992 RMK A01 T03301002  RH  012%=      5-min Rain = 0
KDVS 170005Z 17006KT 33/M00 A2992 RMK A01 T03291002  RH  012%=      5-min Rain = 0
KDVS 170010Z 18006KT 33/M00 A2992 RMK A01 T03291001  RH  012%=      5-min Rain = 0
KDVS 170015Z 19003G9KT 33/M00 A2992 RMK A01 T03271002  RH  012%=      5-min Rain = 0
KDVS 170020Z 20006KT 33/M00 A2992 RMK A01 T03281001  RH  012%=      5-min Rain = 0
KDVS 170025Z 21005KT 33/M00 A2992 RMK A01 T03271002  RH  012%=      5-min Rain = 0
KDVS 170030Z 23005KT 33/M00 A2992 RMK A01 T03261003  RH  012%=      5-min Rain = 0
KDVS 170035Z 22004KT 33/M00 A2992 RMK A01 T03261002  RH  012%=      5-min Rain = 0
KDVS 170040Z 17004KT 33/M00 A2992 RMK A01 T03271002  RH  012%=      5-min Rain = 0
KDVS 170045Z 19005KT 33/M00 A2992 RMK A01 T03251002  RH  012%=      5-min Rain = 0
KDVS 170050Z 21004KT 32/M00 A2992 RMK A01 T03241002  RH  012%=      5-min Rain = 0
KDVS 170055Z 21003KT 32/M00 A2992 RMK A01 T03231003  RH  013%=      5-min Rain = 0
KDVS 170100Z 18003KT 32/M00 A2992 RMK A01 T03221003  RH  013%=      5-min Rain = 0
KDVS 170105Z 16002KT 32/M00 A2991 RMK A01 T03231001  RH  013%=      5-min Rain = 0
KDVS 170110Z 13001KT 32/M00 A2992 RMK A01 T03221003  RH  013%=      5-min Rain = 0
KDVS 170115Z 14002KT 32/M00 A2992 RMK A01 T03201002  RH  013%=      5-min Rain = 0
KDVS 170120Z 14002KT 32/00 A2992 RMK A01 T03150000  RH  013%=      5-min Rain = 0
KDVS 170125Z 14003KT 31/00 A2992 RMK A01 T03090002  RH  014%=      5-min Rain = 0
KDVS 170130Z 13004KT 30/00 A2992 RMK A01 T03040000  RH  014%=      5-min Rain = 0
KDVS 170135Z 13004KT 30/M00 A2992 RMK A01 T02981001  RH  015%=      5-min Rain = 0
KDVS 170140Z 13004KT 29/00 A2992 RMK A01 T02900000  RH  015%=      5-min Rain = 0
KDVS 170145Z 13004KT 28/00 A2992 RMK A01 T02840001  RH  016%=      5-min Rain = 0
KDVS 170150Z 12004KT 28/00 A2992 RMK A01 T02810004  RH  017%=      5-min Rain = 0
KDVS 170155Z 13005KT 28/00 A2992 RMK A01 T02800002  RH  017%=      5-min Rain = 0
KDVS 170200Z 13005KT 28/00 A2992 RMK A01 T02780001  RH  017%=      5-min Rain = 0
KDVS 170205Z 13005KT 28/00 A2993 RMK A01 T02760001  RH  017%=      5-min Rain = 0
KDVS 170210Z 12006KT 27/00 A2993 RMK A01 T02720000  RH  017%=      5-min Rain = 0
KDVS 170215Z 12006KT 27/00 A2993 RMK A01 T02670001  RH  018%=      5-min Rain = 0
KDVS 170220Z 12007KT 26/00 A2993 RMK A01 T02610001  RH  018%=      5-min Rain = 0
KDVS 170225Z 12007KT 25/00 A2993 RMK A01 T025400-0  RH  019%=      5-min Rain = 0
KDVS 170230Z 12007KT 25/M00 A2993 RMK A01 T02491001  RH  020%=      5-min Rain = 0
KDVS 170235Z 11007KT 25/M00 A2993 RMK A01 T02471001  RH  020%=      5-min Rain = 0
KDVS 170240Z 11007KT 25/M00 A2993 RMK A01 T02471003  RH  020%=      5-min Rain = 0
KDVS 170245Z 10007KT 25/M00 A2994 RMK A01 T02451003  RH  020%=      5-min Rain = 0
KDVS 170250Z 10007KT 24/M00 A2994 RMK A01 T02401002  RH  021%=      5-min Rain = 0
KDVS 170255Z 10007KT 24/M00 A2994 RMK A01 T02381001  RH  021%=      5-min Rain = 0
KDVS 170300Z 10012KT 24/01 A2995 RMK A01 T02380012  RH  023%=      5-min Rain = 0
KDVS 170305Z 10015G21KT 25/07 A2995 RMK A01 T02520073  RH  033%=      5-min Rain = 0
KDVS 170310Z 11016G21KT 26/09 A2995 RMK A01 T02590093  RH  036%=      5-min Rain = 0
KDVS 170315Z 11014G19KT 26/10 A2995 RMK A01 T02570098  RH  038%=      5-min Rain = 0
KDVS 170320Z 11015G20KT 26/10 A2995 RMK A01 T02550100  RH  039%=      5-min Rain = 0
KDVS 170325Z 11016G21KT 25/10 A2996 RMK A01 T02540099  RH  039%=      5-min Rain = 0
KDVS 170330Z 12017G23KT 25/10 A2996 RMK A01 T02540096  RH  038%=      5-min Rain = 0
KDVS 170335Z 12016KT 25/10 A2996 RMK A01 T02510096  RH  039%=      5-min Rain = 0
KDVS 170340Z 12017G22KT 25/10 A2996 RMK A01 T02490099  RH  040%=      5-min Rain = 0
KDVS 170345Z 12017G22KT 25/10 A2996 RMK A01 T02460102  RH  042%=      5-min Rain = 0
KDVS 170350Z 12016G21KT 24/10 A2997 RMK A01 T02440103  RH  042%=      5-min Rain = 0
KDVS 170355Z 12016G22KT 24/10 A2997 RMK A01 T02420103  RH  043%=      5-min Rain = 0
KDVS 170400Z 12016G23KT 24/10 A2997 RMK A01 T02410102  RH  043%=      5-min Rain = 0
KDVS 170405Z 12016G21KT 24/10 A2997 RMK A01 T02400102  RH  043%=      5-min Rain = 0
KDVS 170410Z 12016KT 24/10 A2997 RMK A01 T02380101  RH  043%=      5-min Rain = 0
KDVS 170415Z 13014KT 24/10 A2997 RMK A01 T02360101  RH  044%=      5-min Rain = 0
KDVS 170420Z 12014G19KT 23/10 A2997 RMK A01 T02340101  RH  044%=      5-min Rain = 0
KDVS 170425Z 12015G20KT 23/10 A2998 RMK A01 T02330099  RH  044%=      5-min Rain = 0
KDVS 170430Z 12015KT 23/10 A2998 RMK A01 T02310098  RH  044%=      5-min Rain = 0
KDVS 170435Z 12014G20KT 23/10 A2998 RMK A01 T02300098  RH  045%=      5-min Rain = 0
KDVS 170440Z 12017G25KT 23/10 A2998 RMK A01 T02280100  RH  046%=      5-min Rain = 0
KDVS 170445Z 12015G20KT 23/10 A2998 RMK A01 T02250101  RH  047%=      5-min Rain = 0
KDVS 170450Z 12015KT 22/10 A2998 RMK A01 T02230102  RH  048%=      5-min Rain = 0
KDVS 170455Z 12014KT 22/10 A2998 RMK A01 T02220102  RH  048%=      5-min Rain = 0

Page generated in 0.0095 seconds.